East Millsboro, Pennsylvania
Current Conditions -  °F | °C
As of 8:55 AM on Wednesday 26 Nov 2014 (Local Time) from KAFJ Reporting Station
Overcast Overcast  
Wind Chill: 27°   Ceiling: 7000
Heat Index: 32°   Visibility: 10mi
Dew Point: 25°   Wind: 5mph
Humidity: 75%   Direction: 40°NE
Pressure: 30.06"   Gusts: NA
Location:  39.98°N, 79.99°W
Report Text: KAFJ 261355Z 04004KT 10SM SCT039 SCT050 OVC070 00/M04 A3006 RMK AO1
Loading
Personal Weather Stations






























Interactive Weather Map New forecast layout! Learn more

10-Day Weather Forecast

Advertisements
Track Severe Weather on mobile